sensor_id;sensor_type;location;lat;lon;timestamp;P1;durP1;ratioP1;P2;durP2;ratioP2
32026;SDS011;18543;50.848;4.596;2023-04-03T00:02:09;1.90;;;1.30;;
32026;SDS011;18543;50.848;4.596;2023-04-03T00:04:39;1.25;;;1.15;;
32026;SDS011;18543;50.848;4.596;2023-04-03T00:07:07;1.40;;;1.30;;
32026;SDS011;18543;50.848;4.596;2023-04-03T00:09:34;1.37;;;1.20;;
32026;SDS011;18543;50.848;4.596;2023-04-03T00:12:01;1.30;;;1.20;;
32026;SDS011;18543;50.848;4.596;2023-04-03T00:14:29;1.30;;;1.20;;
32026;SDS011;18543;50.848;4.596;2023-04-03T00:16:56;1.65;;;1.10;;
32026;SDS011;18543;50.848;4.596;2023-04-03T00:19:23;1.97;;;1.30;;
32026;SDS011;18543;50.848;4.596;2023-04-03T00:21:51;1.17;;;1.10;;
32026;SDS011;18543;50.848;4.596;2023-04-03T00:24:19;1.50;;;1.40;;
32026;SDS011;18543;50.848;4.596;2023-04-03T00:26:46;1.77;;;1.10;;
32026;SDS011;18543;50.848;4.596;2023-04-03T00:29:14;1.30;;;1.20;;
32026;SDS011;18543;50.848;4.596;2023-04-03T00:31:41;1.60;;;1.50;;
32026;SDS011;18543;50.848;4.596;2023-04-03T00:34:08;1.30;;;1.20;;
32026;SDS011;18543;50.848;4.596;2023-04-03T00:36:36;1.58;;;1.30;;
32026;SDS011;18543;50.848;4.596;2023-04-03T00:39:03;1.17;;;1.08;;
32026;SDS011;18543;50.848;4.596;2023-04-03T00:41:32;1.48;;;1.23;;
32026;SDS011;18543;50.848;4.596;2023-04-03T00:43:59;1.38;;;1.27;;
32026;SDS011;18543;50.848;4.596;2023-04-03T00:46:26;1.57;;;1.30;;
32026;SDS011;18543;50.848;4.596;2023-04-03T00:48:53;1.20;;;1.10;;
32026;SDS011;18543;50.848;4.596;2023-04-03T00:51:22;1.77;;;1.40;;
32026;SDS011;18543;50.848;4.596;2023-04-03T00:53:52;1.30;;;1.20;;
32026;SDS011;18543;50.848;4.596;2023-04-03T00:56:22;1.42;;;1.33;;
32026;SDS011;18543;50.848;4.596;2023-04-03T00:58:54;1.25;;;1.10;;
32026;SDS011;18543;50.848;4.596;2023-04-03T01:01:25;1.35;;;1.20;;
32026;SDS011;18543;50.848;4.596;2023-04-03T01:03:53;1.45;;;1.30;;
32026;SDS011;18543;50.848;4.596;2023-04-03T01:06:24;1.30;;;1.20;;
32026;SDS011;18543;50.848;4.596;2023-04-03T01:08:53;1.30;;;1.20;;
32026;SDS011;18543;50.848;4.596;2023-04-03T01:11:21;1.30;;;1.20;;
32026;SDS011;18543;50.848;4.596;2023-04-03T01:13:48;1.30;;;1.20;;
32026;SDS011;18543;50.848;4.596;2023-04-03T01:16:16;1.30;;;1.20;;
32026;SDS011;18543;50.848;4.596;2023-04-03T01:18:43;1.52;;;1.30;;
32026;SDS011;18543;50.848;4.596;2023-04-03T01:26:37;1.27;;;1.13;;
32026;SDS011;18543;50.848;4.596;2023-04-03T01:29:04;1.65;;;1.30;;
32026;SDS011;18543;50.848;4.596;2023-04-03T01:34:02;1.70;;;1.30;;
32026;SDS011;18543;50.848;4.596;2023-04-03T01:36:30;1.50;;;1.40;;
32026;SDS011;18543;50.848;4.596;2023-04-03T01:38:58;1.40;;;1.30;;
32026;SDS011;18543;50.848;4.596;2023-04-03T01:41:26;1.55;;;1.08;;
32026;SDS011;18543;50.848;4.596;2023-04-03T01:43:53;1.25;;;1.15;;
32026;SDS011;18543;50.848;4.596;2023-04-03T01:46:20;1.20;;;1.10;;
32026;SDS011;18543;50.848;4.596;2023-04-03T01:48:48;1.48;;;1.35;;
32026;SDS011;18543;50.848;4.596;2023-04-03T01:51:15;1.40;;;1.30;;
32026;SDS011;18543;50.848;4.596;2023-04-03T01:53:43;1.10;;;1.00;;
32026;SDS011;18543;50.848;4.596;2023-04-03T01:56:10;1.33;;;1.13;;
32026;SDS011;18543;50.848;4.596;2023-04-03T01:58:37;1.27;;;1.17;;
32026;SDS011;18543;50.848;4.596;2023-04-03T02:01:05;1.20;;;1.10;;
32026;SDS011;18543;50.848;4.596;2023-04-03T02:03:32;1.00;;;1.00;;
32026;SDS011;18543;50.848;4.596;2023-04-03T02:06:00;1.10;;;1.00;;
32026;SDS011;18543;50.848;4.596;2023-04-03T02:08:27;1.40;;;1.20;;
32026;SDS011;18543;50.848;4.596;2023-04-03T02:10:54;1.35;;;1.17;;
32026;SDS011;18543;50.848;4.596;2023-04-03T02:13:24;1.10;;;1.00;;
32026;SDS011;18543;50.848;4.596;2023-04-03T02:15:51;1.15;;;1.15;;
32026;SDS011;18543;50.848;4.596;2023-04-03T02:18:18;1.20;;;1.10;;
32026;SDS011;18543;50.848;4.596;2023-04-03T02:20:46;1.40;;;1.30;;
32026;SDS011;18543;50.848;4.596;2023-04-03T02:23:14;1.23;;;1.13;;
32026;SDS011;18543;50.848;4.596;2023-04-03T02:25:41;1.15;;;1.10;;
32026;SDS011;18543;50.848;4.596;2023-04-03T02:28:08;1.83;;;1.07;;
32026;SDS011;18543;50.848;4.596;2023-04-03T02:30:35;1.55;;;1.13;;
32026;SDS011;18543;50.848;4.596;2023-04-03T02:33:03;1.30;;;1.20;;
32026;SDS011;18543;50.848;4.596;2023-04-03T02:35:30;1.80;;;1.25;;
32026;SDS011;18543;50.848;4.596;2023-04-03T02:37:58;1.30;;;1.20;;
32026;SDS011;18543;50.848;4.596;2023-04-03T02:40:27;1.08;;;1.00;;
32026;SDS011;18543;50.848;4.596;2023-04-03T02:42:55;1.40;;;1.30;;
32026;SDS011;18543;50.848;4.596;2023-04-03T02:45:24;1.20;;;1.10;;
32026;SDS011;18543;50.848;4.596;2023-04-03T02:47:52;1.40;;;1.20;;
32026;SDS011;18543;50.848;4.596;2023-04-03T02:50:19;1.40;;;1.30;;
32026;SDS011;18543;50.848;4.596;2023-04-03T02:52:46;1.30;;;1.20;;
32026;SDS011;18543;50.848;4.596;2023-04-03T02:55:14;1.10;;;1.00;;
32026;SDS011;18543;50.848;4.596;2023-04-03T02:57:42;1.25;;;1.10;;
32026;SDS011;18543;50.848;4.596;2023-04-03T03:00:09;1.10;;;1.00;;
32026;SDS011;18543;50.848;4.596;2023-04-03T03:02:36;1.05;;;0.95;;
32026;SDS011;18543;50.848;4.596;2023-04-03T03:05:04;1.10;;;1.00;;
32026;SDS011;18543;50.848;4.596;2023-04-03T03:09:59;1.27;;;1.10;;
32026;SDS011;18543;50.848;4.596;2023-04-03T03:12:26;1.17;;;1.05;;
32026;SDS011;18543;50.848;4.596;2023-04-03T03:14:53;1.17;;;1.07;;
32026;SDS011;18543;50.848;4.596;2023-04-03T03:17:21;1.08;;;1.00;;
32026;SDS011;18543;50.848;4.596;2023-04-03T03:19:48;1.45;;;1.00;;
32026;SDS011;18543;50.848;4.596;2023-04-03T03:22:16;1.03;;;1.00;;
32026;SDS011;18543;50.848;4.596;2023-04-03T03:24:43;1.25;;;1.00;;
32026;SDS011;18543;50.848;4.596;2023-04-03T03:27:10;1.17;;;1.00;;
32026;SDS011;18543;50.848;4.596;2023-04-03T03:29:38;1.20;;;1.10;;
32026;SDS011;18543;50.848;4.596;2023-04-03T03:32:05;1.20;;;1.10;;
32026;SDS011;18543;50.848;4.596;2023-04-03T03:34:33;0.93;;;0.85;;
32026;SDS011;18543;50.848;4.596;2023-04-03T03:37:00;1.42;;;1.08;;
32026;SDS011;18543;50.848;4.596;2023-04-03T03:39:28;0.90;;;0.90;;
32026;SDS011;18543;50.848;4.596;2023-04-03T03:41:55;1.10;;;1.00;;
32026;SDS011;18543;50.848;4.596;2023-04-03T03:44:22;1.20;;;1.10;;
32026;SDS011;18543;50.848;4.596;2023-04-03T03:46:50;1.10;;;1.00;;
32026;SDS011;18543;50.848;4.596;2023-04-03T03:49:17;0.82;;;0.82;;
32026;SDS011;18543;50.848;4.596;2023-04-03T03:51:44;1.27;;;1.00;;
32026;SDS011;18543;50.848;4.596;2023-04-03T03:54:11;1.20;;;1.10;;
32026;SDS011;18543;50.848;4.596;2023-04-03T03:56:39;1.10;;;1.03;;
32026;SDS011;18543;50.848;4.596;2023-04-03T03:59:06;1.00;;;1.00;;
32026;SDS011;18543;50.848;4.596;2023-04-03T04:01:33;1.27;;;1.17;;
32026;SDS011;18543;50.848;4.596;2023-04-03T04:04:01;1.63;;;1.15;;
32026;SDS011;18543;50.848;4.596;2023-04-03T04:06:28;1.10;;;1.00;;
32026;SDS011;18543;50.848;4.596;2023-04-03T04:08:55;1.17;;;1.08;;
32026;SDS011;18543;50.848;4.596;2023-04-03T04:11:23;1.00;;;1.00;;
32026;SDS011;18543;50.848;4.596;2023-04-03T04:13:51;1.05;;;1.05;;
32026;SDS011;18543;50.848;4.596;2023-04-03T04:16:18;2.08;;;1.23;;
32026;SDS011;18543;50.848;4.596;2023-04-03T04:18:45;1.33;;;1.10;;
32026;SDS011;18543;50.848;4.596;2023-04-03T04:21:14;1.30;;;1.10;;
32026;SDS011;18543;50.848;4.596;2023-04-03T04:23:42;1.25;;;1.10;;
32026;SDS011;18543;50.848;4.596;2023-04-03T04:26:09;1.30;;;1.20;;
32026;SDS011;18543;50.848;4.596;2023-04-03T04:28:36;1.20;;;1.10;;
32026;SDS011;18543;50.848;4.596;2023-04-03T04:31:03;0.90;;;0.90;;
32026;SDS011;18543;50.848;4.596;2023-04-03T04:33:33;1.20;;;1.10;;
32026;SDS011;18543;50.848;4.596;2023-04-03T04:36:00;0.90;;;0.90;;
32026;SDS011;18543;50.848;4.596;2023-04-03T04:38:28;1.23;;;0.95;;
32026;SDS011;18543;50.848;4.596;2023-04-03T04:40:55;1.30;;;1.20;;
32026;SDS011;18543;50.848;4.596;2023-04-03T04:43:22;1.13;;;1.03;;
32026;SDS011;18543;50.848;4.596;2023-04-03T04:45:59;1.17;;;1.10;;
32026;SDS011;18543;50.848;4.596;2023-04-03T04:48:26;1.55;;;1.20;;
32026;SDS011;18543;50.848;4.596;2023-04-03T04:50:54;1.30;;;1.20;;
32026;SDS011;18543;50.848;4.596;2023-04-03T04:53:21;0.95;;;0.95;;
32026;SDS011;18543;50.848;4.596;2023-04-03T04:55:48;1.00;;;1.00;;
32026;SDS011;18543;50.848;4.596;2023-04-03T04:58:16;1.02;;;1.00;;
32026;SDS011;18543;50.848;4.596;2023-04-03T05:03:10;1.30;;;1.20;;
32026;SDS011;18543;50.848;4.596;2023-04-03T05:05:37;1.23;;;1.10;;
32026;SDS011;18543;50.848;4.596;2023-04-03T05:08:05;1.00;;;0.90;;
32026;SDS011;18543;50.848;4.596;2023-04-03T05:10:34;1.00;;;1.00;;
32026;SDS011;18543;50.848;4.596;2023-04-03T05:13:01;1.05;;;1.00;;
32026;SDS011;18543;50.848;4.596;2023-04-03T05:15:29;1.27;;;1.17;;
32026;SDS011;18543;50.848;4.596;2023-04-03T05:17:56;1.57;;;1.20;;
32026;SDS011;18543;50.848;4.596;2023-04-03T05:20:23;1.13;;;1.10;;
32026;SDS011;18543;50.848;4.596;2023-04-03T05:22:51;1.33;;;1.10;;
32026;SDS011;18543;50.848;4.596;2023-04-03T05:25:18;1.23;;;1.10;;
32026;SDS011;18543;50.848;4.596;2023-04-03T05:27:46;1.20;;;1.10;;
32026;SDS011;18543;50.848;4.596;2023-04-03T05:30:13;1.43;;;1.20;;
32026;SDS011;18543;50.848;4.596;2023-04-03T05:32:41;1.10;;;1.10;;
32026;SDS011;18543;50.848;4.596;2023-04-03T05:35:08;1.42;;;1.10;;
32026;SDS011;18543;50.848;4.596;2023-04-03T05:37:36;1.33;;;1.10;;
32026;SDS011;18543;50.848;4.596;2023-04-03T05:40:06;1.40;;;1.20;;
32026;SDS011;18543;50.848;4.596;2023-04-03T05:42:34;1.10;;;1.10;;
32026;SDS011;18543;50.848;4.596;2023-04-03T05:45:01;1.00;;;1.00;;
32026;SDS011;18543;50.848;4.596;2023-04-03T05:47:28;1.67;;;1.10;;
32026;SDS011;18543;50.848;4.596;2023-04-03T05:49:56;1.30;;;1.20;;
32026;SDS011;18543;50.848;4.596;2023-04-03T05:52:28;1.30;;;1.20;;
32026;SDS011;18543;50.848;4.596;2023-04-03T05:54:55;1.33;;;1.23;;
32026;SDS011;18543;50.848;4.596;2023-04-03T05:57:23;1.00;;;1.00;;
32026;SDS011;18543;50.848;4.596;2023-04-03T05:59:50;1.15;;;1.05;;
32026;SDS011;18543;50.848;4.596;2023-04-03T06:02:19;1.30;;;1.20;;
32026;SDS011;18543;50.848;4.596;2023-04-03T06:04:47;1.27;;;1.15;;
32026;SDS011;18543;50.848;4.596;2023-04-03T06:07:15;1.20;;;1.10;;
32026;SDS011;18543;50.848;4.596;2023-04-03T06:09:43;1.33;;;1.17;;
32026;SDS011;18543;50.848;4.596;2023-04-03T06:12:11;1.20;;;1.10;;
32026;SDS011;18543;50.848;4.596;2023-04-03T06:14:38;1.45;;;1.35;;
32026;SDS011;18543;50.848;4.596;2023-04-03T06:17:06;1.30;;;1.20;;
32026;SDS011;18543;50.848;4.596;2023-04-03T06:19:35;1.33;;;1.15;;
32026;SDS011;18543;50.848;4.596;2023-04-03T06:22:03;1.90;;;1.13;;
32026;SDS011;18543;50.848;4.596;2023-04-03T06:24:30;1.50;;;1.40;;
32026;SDS011;18543;50.848;4.596;2023-04-03T06:26:58;1.90;;;1.20;;
32026;SDS011;18543;50.848;4.596;2023-04-03T06:29:25;1.35;;;1.20;;
32026;SDS011;18543;50.848;4.596;2023-04-03T06:31:53;1.27;;;1.17;;
32026;SDS011;18543;50.848;4.596;2023-04-03T06:34:20;1.10;;;1.00;;
32026;SDS011;18543;50.848;4.596;2023-04-03T06:36:48;1.58;;;1.25;;
32026;SDS011;18543;50.848;4.596;2023-04-03T06:39:20;1.23;;;1.10;;
32026;SDS011;18543;50.848;4.596;2023-04-03T06:41:51;1.20;;;1.10;;
32026;SDS011;18543;50.848;4.596;2023-04-03T06:44:18;1.20;;;1.10;;
32026;SDS011;18543;50.848;4.596;2023-04-03T06:46:46;1.30;;;1.20;;
32026;SDS011;18543;50.848;4.596;2023-04-03T06:49:14;1.35;;;1.20;;
32026;SDS011;18543;50.848;4.596;2023-04-03T06:51:41;1.47;;;1.20;;
32026;SDS011;18543;50.848;4.596;2023-04-03T06:54:09;1.17;;;1.07;;
32026;SDS011;18543;50.848;4.596;2023-04-03T06:56:36;1.30;;;1.20;;
32026;SDS011;18543;50.848;4.596;2023-04-03T06:59:03;1.30;;;1.20;;
32026;SDS011;18543;50.848;4.596;2023-04-03T07:01:31;2.07;;;1.40;;
32026;SDS011;18543;50.848;4.596;2023-04-03T07:03:58;1.35;;;1.15;;
32026;SDS011;18543;50.848;4.596;2023-04-03T07:06:26;1.17;;;1.08;;
32026;SDS011;18543;50.848;4.596;2023-04-03T07:08:53;1.15;;;1.13;;
32026;SDS011;18543;50.848;4.596;2023-04-03T07:11:21;1.55;;;1.20;;
32026;SDS011;18543;50.848;4.596;2023-04-03T07:13:48;1.40;;;1.30;;
32026;SDS011;18543;50.848;4.596;2023-04-03T07:16:16;1.40;;;1.30;;
32026;SDS011;18543;50.848;4.596;2023-04-03T07:18:43;1.95;;;1.40;;
32026;SDS011;18543;50.848;4.596;2023-04-03T07:21:11;1.17;;;1.08;;
32026;SDS011;18543;50.848;4.596;2023-04-03T07:23:39;1.63;;;1.00;;
32026;SDS011;18543;50.848;4.596;2023-04-03T07:26:06;1.20;;;1.10;;
32026;SDS011;18543;50.848;4.596;2023-04-03T07:28:34;1.33;;;1.23;;
32026;SDS011;18543;50.848;4.596;2023-04-03T07:31:04;1.70;;;1.30;;
32026;SDS011;18543;50.848;4.596;2023-04-03T07:33:32;1.50;;;1.27;;
32026;SDS011;18543;50.848;4.596;2023-04-03T07:36:00;1.25;;;1.15;;
32026;SDS011;18543;50.848;4.596;2023-04-03T07:40:55;1.10;;;1.10;;
32026;SDS011;18543;50.848;4.596;2023-04-03T07:43:22;1.50;;;1.40;;
32026;SDS011;18543;50.848;4.596;2023-04-03T07:45:51;1.00;;;1.00;;
32026;SDS011;18543;50.848;4.596;2023-04-03T07:48:23;1.23;;;1.13;;
32026;SDS011;18543;50.848;4.596;2023-04-03T07:50:51;1.13;;;1.10;;
32026;SDS011;18543;50.848;4.596;2023-04-03T07:53:18;1.27;;;1.17;;
32026;SDS011;18543;50.848;4.596;2023-04-03T07:55:46;1.23;;;1.13;;
32026;SDS011;18543;50.848;4.596;2023-04-03T07:58:15;1.23;;;1.13;;
32026;SDS011;18543;50.848;4.596;2023-04-03T08:00:42;1.38;;;1.27;;
32026;SDS011;18543;50.848;4.596;2023-04-03T08:03:10;1.00;;;0.90;;
32026;SDS011;18543;50.848;4.596;2023-04-03T08:05:39;1.10;;;1.10;;
32026;SDS011;18543;50.848;4.596;2023-04-03T08:08:08;1.30;;;1.20;;
32026;SDS011;18543;50.848;4.596;2023-04-03T08:10:36;1.20;;;1.10;;
32026;SDS011;18543;50.848;4.596;2023-04-03T08:13:03;1.40;;;1.17;;
32026;SDS011;18543;50.848;4.596;2023-04-03T08:15:31;1.40;;;1.30;;
32026;SDS011;18543;50.848;4.596;2023-04-03T08:17:59;1.40;;;1.10;;
32026;SDS011;18543;50.848;4.596;2023-04-03T08:20:29;1.20;;;1.10;;
32026;SDS011;18543;50.848;4.596;2023-04-03T08:22:56;1.27;;;1.17;;
32026;SDS011;18543;50.848;4.596;2023-04-03T08:25:24;1.50;;;1.20;;
32026;SDS011;18543;50.848;4.596;2023-04-03T08:27:51;1.10;;;1.10;;
32026;SDS011;18543;50.848;4.596;2023-04-03T08:30:18;1.30;;;1.20;;
32026;SDS011;18543;50.848;4.596;2023-04-03T08:32:46;1.10;;;1.00;;
32026;SDS011;18543;50.848;4.596;2023-04-03T08:35:13;1.05;;;1.05;;
32026;SDS011;18543;50.848;4.596;2023-04-03T08:37:40;1.33;;;1.10;;
32026;SDS011;18543;50.848;4.596;2023-04-03T08:40:11;1.17;;;1.08;;
32026;SDS011;18543;50.848;4.596;2023-04-03T08:47:59;1.60;;;1.30;;
32026;SDS011;18543;50.848;4.596;2023-04-03T08:50:31;1.20;;;1.10;;
32026;SDS011;18543;50.848;4.596;2023-04-03T08:53:01;1.33;;;1.23;;
32026;SDS011;18543;50.848;4.596;2023-04-03T08:55:54;1.00;;;1.00;;
32026;SDS011;18543;50.848;4.596;2023-04-03T08:58:30;1.35;;;1.25;;
32026;SDS011;18543;50.848;4.596;2023-04-03T09:01:00;1.52;;;1.10;;
32026;SDS011;18543;50.848;4.596;2023-04-03T09:03:30;1.52;;;1.23;;
32026;SDS011;18543;50.848;4.596;2023-04-03T09:06:03;1.13;;;1.05;;
32026;SDS011;18543;50.848;4.596;2023-04-03T09:13:44;1.25;;;1.05;;
32026;SDS011;18543;50.848;4.596;2023-04-03T09:16:25;1.58;;;1.30;;
32026;SDS011;18543;50.848;4.596;2023-04-03T09:18:57;0.90;;;0.90;;
32026;SDS011;18543;50.848;4.596;2023-04-03T09:21:34;1.58;;;1.30;;
32026;SDS011;18543;50.848;4.596;2023-04-03T09:24:04;1.20;;;1.10;;
32026;SDS011;18543;50.848;4.596;2023-04-03T09:26:36;1.20;;;1.10;;
32026;SDS011;18543;50.848;4.596;2023-04-03T09:29:06;1.23;;;1.13;;
32026;SDS011;18543;50.848;4.596;2023-04-03T09:31:38;1.20;;;1.10;;
32026;SDS011;18543;50.848;4.596;2023-04-03T09:34:10;0.90;;;0.90;;
32026;SDS011;18543;50.848;4.596;2023-04-03T09:36:46;1.80;;;1.27;;
32026;SDS011;18543;50.848;4.596;2023-04-03T09:39:15;1.35;;;1.20;;
32026;SDS011;18543;50.848;4.596;2023-04-03T09:41:43;1.25;;;1.10;;
32026;SDS011;18543;50.848;4.596;2023-04-03T09:44:25;1.30;;;1.20;;
32026;SDS011;18543;50.848;4.596;2023-04-03T09:46:53;0.93;;;0.90;;
32026;SDS011;18543;50.848;4.596;2023-04-03T09:49:20;1.48;;;1.05;;
32026;SDS011;18543;50.848;4.596;2023-04-03T09:51:48;1.10;;;1.00;;
32026;SDS011;18543;50.848;4.596;2023-04-03T09:57:12;0.90;;;0.90;;
32026;SDS011;18543;50.848;4.596;2023-04-03T09:59:44;1.20;;;1.10;;
32026;SDS011;18543;50.848;4.596;2023-04-03T10:02:46;1.02;;;0.95;;
32026;SDS011;18543;50.848;4.596;2023-04-03T10:07:52;1.30;;;1.20;;
32026;SDS011;18543;50.848;4.596;2023-04-03T10:10:28;1.38;;;1.00;;
32026;SDS011;18543;50.848;4.596;2023-04-03T10:18:02;1.30;;;1.10;;
32026;SDS011;18543;50.848;4.596;2023-04-03T10:20:49;1.20;;;1.10;;
32026;SDS011;18543;50.848;4.596;2023-04-03T10:23:21;1.20;;;1.00;;
32026;SDS011;18543;50.848;4.596;2023-04-03T10:31:02;1.10;;;1.00;;
32026;SDS011;18543;50.848;4.596;2023-04-03T10:36:40;0.93;;;0.90;;
32026;SDS011;18543;50.848;4.596;2023-04-03T10:47:20;0.93;;;0.93;;
32026;SDS011;18543;50.848;4.596;2023-04-03T10:52:37;1.08;;;1.00;;
32026;SDS011;18543;50.848;4.596;2023-04-03T10:57:34;1.10;;;1.00;;
32026;SDS011;18543;50.848;4.596;2023-04-03T11:00:06;0.93;;;0.93;;
32026;SDS011;18543;50.848;4.596;2023-04-03T11:02:45;1.15;;;0.93;;
32026;SDS011;18543;50.848;4.596;2023-04-03T11:05:17;1.08;;;0.98;;
32026;SDS011;18543;50.848;4.596;2023-04-03T11:07:46;0.95;;;0.93;;
32026;SDS011;18543;50.848;4.596;2023-04-03T11:10:35;0.90;;;0.90;;
32026;SDS011;18543;50.848;4.596;2023-04-03T11:15:49;0.98;;;0.90;;
32026;SDS011;18543;50.848;4.596;2023-04-03T11:18:19;0.85;;;0.80;;
32026;SDS011;18543;50.848;4.596;2023-04-03T11:20:52;1.42;;;1.10;;
32026;SDS011;18543;50.848;4.596;2023-04-03T11:25:57;0.90;;;0.90;;
32026;SDS011;18543;50.848;4.596;2023-04-03T11:28:28;1.08;;;0.93;;
32026;SDS011;18543;50.848;4.596;2023-04-03T11:36:28;1.00;;;1.00;;
32026;SDS011;18543;50.848;4.596;2023-04-03T11:39:25;0.95;;;0.90;;
32026;SDS011;18543;50.848;4.596;2023-04-03T11:41:49;0.90;;;0.90;;
32026;SDS011;18543;50.848;4.596;2023-04-03T11:44:35;0.80;;;0.80;;
32026;SDS011;18543;50.848;4.596;2023-04-03T11:47:07;1.05;;;0.98;;
32026;SDS011;18543;50.848;4.596;2023-04-03T12:03:22;1.48;;;1.10;;
32026;SDS011;18543;50.848;4.596;2023-04-03T12:08:27;0.90;;;0.90;;
32026;SDS011;18543;50.848;4.596;2023-04-03T12:13:39;1.00;;;0.90;;
32026;SDS011;18543;50.848;4.596;2023-04-03T12:16:08;1.00;;;0.90;;
32026;SDS011;18543;50.848;4.596;2023-04-03T12:21:13;1.17;;;1.08;;
32026;SDS011;18543;50.848;4.596;2023-04-03T12:26:25;1.10;;;1.00;;
32026;SDS011;18543;50.848;4.596;2023-04-03T12:29:14;1.02;;;1.00;;
32026;SDS011;18543;50.848;4.596;2023-04-03T12:34:54;1.05;;;0.90;;
32026;SDS011;18543;50.848;4.596;2023-04-03T12:45:13;0.77;;;0.77;;
32026;SDS011;18543;50.848;4.596;2023-04-03T12:47:43;0.95;;;0.88;;
32026;SDS011;18543;50.848;4.596;2023-04-03T12:50:45;1.27;;;0.80;;
32026;SDS011;18543;50.848;4.596;2023-04-03T12:53:18;0.80;;;0.70;;
32026;SDS011;18543;50.848;4.596;2023-04-03T12:55:46;0.88;;;0.88;;
32026;SDS011;18543;50.848;4.596;2023-04-03T12:58:24;0.80;;;0.80;;
32026;SDS011;18543;50.848;4.596;2023-04-03T13:03:39;0.88;;;0.88;;
32026;SDS011;18543;50.848;4.596;2023-04-03T13:06:10;0.85;;;0.85;;
32026;SDS011;18543;50.848;4.596;2023-04-03T13:08:51;0.95;;;0.95;;
32026;SDS011;18543;50.848;4.596;2023-04-03T13:11:19;0.98;;;0.88;;
32026;SDS011;18543;50.848;4.596;2023-04-03T13:13:57;0.90;;;0.90;;
32026;SDS011;18543;50.848;4.596;2023-04-03T13:18:53;0.90;;;0.90;;
32026;SDS011;18543;50.848;4.596;2023-04-03T13:21:38;1.63;;;1.10;;
32026;SDS011;18543;50.848;4.596;2023-04-03T13:24:06;0.85;;;0.85;;
32026;SDS011;18543;50.848;4.596;2023-04-03T13:26:41;1.20;;;0.98;;
32026;SDS011;18543;50.848;4.596;2023-04-03T13:31:45;0.77;;;0.73;;
32026;SDS011;18543;50.848;4.596;2023-04-03T13:34:13;1.07;;;0.80;;
32026;SDS011;18543;50.848;4.596;2023-04-03T13:41:38;0.80;;;0.80;;
32026;SDS011;18543;50.848;4.596;2023-04-03T13:46:49;1.33;;;0.90;;
32026;SDS011;18543;50.848;4.596;2023-04-03T13:51:44;1.10;;;0.90;;
32026;SDS011;18543;50.848;4.596;2023-04-03T13:54:20;0.80;;;0.80;;
32026;SDS011;18543;50.848;4.596;2023-04-03T13:56:53;0.80;;;0.80;;
32026;SDS011;18543;50.848;4.596;2023-04-03T13:59:23;0.70;;;0.70;;
32026;SDS011;18543;50.848;4.596;2023-04-03T14:04:31;0.90;;;0.90;;
32026;SDS011;18543;50.848;4.596;2023-04-03T14:06:59;0.80;;;0.80;;
32026;SDS011;18543;50.848;4.596;2023-04-03T14:09:27;1.67;;;0.90;;
32026;SDS011;18543;50.848;4.596;2023-04-03T14:11:55;0.80;;;0.80;;
32026;SDS011;18543;50.848;4.596;2023-04-03T14:14:26;1.00;;;0.88;;
32026;SDS011;18543;50.848;4.596;2023-04-03T14:16:56;0.90;;;0.70;;
32026;SDS011;18543;50.848;4.596;2023-04-03T14:19:29;0.70;;;0.70;;
32026;SDS011;18543;50.848;4.596;2023-04-03T14:21:56;0.90;;;0.90;;
32026;SDS011;18543;50.848;4.596;2023-04-03T14:24:24;0.70;;;0.70;;
32026;SDS011;18543;50.848;4.596;2023-04-03T14:26:52;1.10;;;0.80;;
32026;SDS011;18543;50.848;4.596;2023-04-03T14:31:46;1.40;;;0.90;;
32026;SDS011;18543;50.848;4.596;2023-04-03T14:34:17;1.17;;;0.90;;
32026;SDS011;18543;50.848;4.596;2023-04-03T14:36:44;0.87;;;0.83;;
32026;SDS011;18543;50.848;4.596;2023-04-03T14:41:39;0.70;;;0.70;;
32026;SDS011;18543;50.848;4.596;2023-04-03T14:44:06;0.85;;;0.70;;
32026;SDS011;18543;50.848;4.596;2023-04-03T14:46:35;0.70;;;0.70;;
32026;SDS011;18543;50.848;4.596;2023-04-03T14:49:22;0.70;;;0.70;;
32026;SDS011;18543;50.848;4.596;2023-04-03T14:51:50;0.70;;;0.70;;
32026;SDS011;18543;50.848;4.596;2023-04-03T14:54:19;0.90;;;0.90;;
32026;SDS011;18543;50.848;4.596;2023-04-03T14:56:52;0.75;;;0.75;;
32026;SDS011;18543;50.848;4.596;2023-04-03T14:59:19;0.80;;;0.80;;
32026;SDS011;18543;50.848;4.596;2023-04-03T15:01:49;0.80;;;0.80;;
32026;SDS011;18543;50.848;4.596;2023-04-03T15:04:18;0.80;;;0.80;;
32026;SDS011;18543;50.848;4.596;2023-04-03T15:06:46;1.05;;;0.90;;
32026;SDS011;18543;50.848;4.596;2023-04-03T15:09:26;1.13;;;0.80;;
32026;SDS011;18543;50.848;4.596;2023-04-03T15:11:55;1.00;;;0.88;;
32026;SDS011;18543;50.848;4.596;2023-04-03T15:14:22;1.07;;;0.80;;
32026;SDS011;18543;50.848;4.596;2023-04-03T15:17:03;0.82;;;0.82;;
32026;SDS011;18543;50.848;4.596;2023-04-03T15:19:32;1.02;;;0.90;;
32026;SDS011;18543;50.848;4.596;2023-04-03T15:22:02;0.88;;;0.88;;
32026;SDS011;18543;50.848;4.596;2023-04-03T15:24:30;0.73;;;0.70;;
32026;SDS011;18543;50.848;4.596;2023-04-03T15:26:57;0.70;;;0.70;;
32026;SDS011;18543;50.848;4.596;2023-04-03T15:29:24;0.77;;;0.70;;
32026;SDS011;18543;50.848;4.596;2023-04-03T15:31:52;0.60;;;0.60;;
32026;SDS011;18543;50.848;4.596;2023-04-03T15:34:19;0.80;;;0.80;;
32026;SDS011;18543;50.848;4.596;2023-04-03T15:36:48;0.70;;;0.70;;
32026;SDS011;18543;50.848;4.596;2023-04-03T15:39:16;0.63;;;0.60;;
32026;SDS011;18543;50.848;4.596;2023-04-03T15:41:43;0.70;;;0.70;;
32026;SDS011;18543;50.848;4.596;2023-04-03T15:44:11;1.10;;;0.80;;
32026;SDS011;18543;50.848;4.596;2023-04-03T15:46:39;0.80;;;0.80;;
32026;SDS011;18543;50.848;4.596;2023-04-03T15:49:09;0.70;;;0.70;;
32026;SDS011;18543;50.848;4.596;2023-04-03T15:51:36;0.77;;;0.77;;
32026;SDS011;18543;50.848;4.596;2023-04-03T15:54:04;0.90;;;0.90;;
32026;SDS011;18543;50.848;4.596;2023-04-03T15:56:31;0.65;;;0.65;;
32026;SDS011;18543;50.848;4.596;2023-04-03T15:58:58;0.63;;;0.63;;
32026;SDS011;18543;50.848;4.596;2023-04-03T16:01:26;0.80;;;0.73;;
32026;SDS011;18543;50.848;4.596;2023-04-03T16:03:53;0.87;;;0.87;;
32026;SDS011;18543;50.848;4.596;2023-04-03T16:06:20;0.77;;;0.77;;
32026;SDS011;18543;50.848;4.596;2023-04-03T16:08:48;0.80;;;0.80;;
32026;SDS011;18543;50.848;4.596;2023-04-03T16:11:16;0.88;;;0.80;;
32026;SDS011;18543;50.848;4.596;2023-04-03T16:13:43;0.93;;;0.77;;
32026;SDS011;18543;50.848;4.596;2023-04-03T16:16:10;1.23;;;0.83;;
32026;SDS011;18543;50.848;4.596;2023-04-03T16:18:37;0.80;;;0.80;;
32026;SDS011;18543;50.848;4.596;2023-04-03T16:21:06;0.93;;;0.77;;
32026;SDS011;18543;50.848;4.596;2023-04-03T16:23:34;1.35;;;0.90;;
32026;SDS011;18543;50.848;4.596;2023-04-03T16:26:01;0.80;;;0.80;;
32026;SDS011;18543;50.848;4.596;2023-04-03T16:28:28;0.80;;;0.80;;
32026;SDS011;18543;50.848;4.596;2023-04-03T16:30:56;0.70;;;0.70;;
32026;SDS011;18543;50.848;4.596;2023-04-03T16:33:23;0.80;;;0.80;;
32026;SDS011;18543;50.848;4.596;2023-04-03T16:35:51;1.77;;;0.70;;
32026;SDS011;18543;50.848;4.596;2023-04-03T16:38:18;0.80;;;0.80;;
32026;SDS011;18543;50.848;4.596;2023-04-03T16:40:48;2.63;;;0.82;;
32026;SDS011;18543;50.848;4.596;2023-04-03T16:43:16;0.80;;;0.80;;
32026;SDS011;18543;50.848;4.596;2023-04-03T16:45:43;0.70;;;0.70;;
32026;SDS011;18543;50.848;4.596;2023-04-03T16:48:10;0.70;;;0.70;;
32026;SDS011;18543;50.848;4.596;2023-04-03T16:50:38;0.80;;;0.80;;
32026;SDS011;18543;50.848;4.596;2023-04-03T16:53:05;1.00;;;0.90;;
32026;SDS011;18543;50.848;4.596;2023-04-03T16:55:35;0.80;;;0.80;;
32026;SDS011;18543;50.848;4.596;2023-04-03T16:58:02;0.80;;;0.80;;
32026;SDS011;18543;50.848;4.596;2023-04-03T17:00:30;0.90;;;0.80;;
32026;SDS011;18543;50.848;4.596;2023-04-03T17:02:58;0.80;;;0.80;;
32026;SDS011;18543;50.848;4.596;2023-04-03T17:05:25;0.68;;;0.68;;
32026;SDS011;18543;50.848;4.596;2023-04-03T17:07:52;0.63;;;0.63;;
32026;SDS011;18543;50.848;4.596;2023-04-03T17:10:20;0.85;;;0.70;;